This is the latest recevied weather packets stored in our database for station/object KLEMETTI. If no packets are shown the sender has not sent any weather packets the latest 10 day(s).
| Time | Temp. | Humidity | Pressure | Rain* | Wind** | Luminosity | Snow |
|---|---|---|---|---|---|---|---|
| 1777452413 | 6.11° C | 36% | 1026.3 hPa | 0 mm | - | - | - |
| 1777451213 | 6.11° C | 38% | 1026.4 hPa | 0 mm | - | - | - |
| 1777450013 | 5.56° C | 37% | 1026.4 hPa | 0 mm | - | - | - |
| 1777448813 | 6.11° C | 42% | 1026.6 hPa | 0 mm | - | - | - |
| 1777447612 | 6.11° C | 45% | 1026.7 hPa | 0 mm | - | - | - |
| 1777446412 | 6.11° C | 43% | 1026.8 hPa | 0 mm | - | - | - |
| 1777445212 | 5.56° C | 50% | 1026.9 hPa | 0 mm | - | - | - |
| 1777444012 | 5.56° C | 53% | 1026.9 hPa | 0 mm | - | - | - |
| 1777442812 | 5° C | 54% | 1026.9 hPa | 0 mm | - | - | - |
| 1777441612 | 4.44° C | 57% | 1027 hPa | 0 mm | - | - | - |
| 1777440412 | 3.89° C | 61% | 1027 hPa | 0 mm | - | - | - |
| 1777439212 | 3.33° C | 69% | 1027.1 hPa | 0 mm | - | - | - |
| 1777438012 | 2.78° C | 76% | 1027.1 hPa | 0 mm | - | - | - |
| 1777436812 | 2.22° C | 82% | 1027 hPa | 0 mm | - | - | - |
| 1777435612 | 1.11° C | 86% | 1027 hPa | 0 mm | - | - | - |
| 1777434411 | -1.11° C | 93% | 1027 hPa | 0 mm | - | - | - |
| 1777433212 | -1.11° C | 93% | 1027 hPa | 0 mm | - | - | - |
| 1777432013 | -1.11° C | 91% | 1027.1 hPa | 0 mm | - | - | - |
| 1777430811 | 0° C | 87% | 1027.1 hPa | 0 mm | - | - | - |
| 1777429612 | 0° C | 85% | 1027.1 hPa | 0 mm | - | - | - |
| 1777428413 | 0.56° C | 85% | 1027.2 hPa | 0 mm | - | - | - |
| 1777427212 | 0.56° C | 85% | 1027.2 hPa | 0 mm | - | - | - |
| 1777426011 | 0.56° C | 86% | 1027.1 hPa | 0 mm | - | - | - |
| 1777424812 | 0.56° C | 85% | 1027.1 hPa | 0 mm | - | - | - |
| 1777423611 | 0.56° C | 83% | 1027 hPa | 0 mm | - | - | - |
* Rain latest hour (hover to see other rain measurements)
** Current wind speed in m/s (hover to see current wind gust speed)